createdAt,value
2023-03-05T00:00:09.334Z,2.06
2023-03-05T00:02:11.325Z,2.06
2023-03-05T00:04:12.606Z,2.1
2023-03-05T00:06:14.289Z,2.06
2023-03-05T00:08:15.583Z,2.05
2023-03-05T00:10:17.509Z,2.06
2023-03-05T00:12:19.411Z,2.09
2023-03-05T00:14:20.548Z,2.1
2023-03-05T00:16:22.580Z,2.09
2023-03-05T00:18:23.749Z,2.08
2023-03-05T00:20:25.569Z,2.04
2023-03-05T00:22:27.097Z,2.04
2023-03-05T00:24:28.322Z,2.02
2023-03-05T00:26:29.459Z,2.01
2023-03-05T00:28:31.251Z,2.01
2023-03-05T00:30:32.712Z,1.96
2023-03-05T00:32:34.662Z,1.98
2023-03-05T00:34:36.266Z,1.92
2023-03-05T00:36:37.694Z,1.93
2023-03-05T00:38:39.189Z,1.91
2023-03-05T00:40:41.228Z,1.89
2023-03-05T00:42:42.158Z,1.87
2023-03-05T00:44:43.740Z,1.88
2023-03-05T00:46:45.315Z,1.86
2023-03-05T00:48:46.711Z,1.83
2023-03-05T00:50:48.405Z,1.8
2023-03-05T00:52:49.571Z,1.78
2023-03-05T00:54:51.513Z,1.8
2023-03-05T00:56:53.409Z,1.82
2023-03-05T00:58:54.740Z,1.83
2023-03-05T01:00:56.450Z,1.84
2023-03-05T01:02:58.193Z,1.85
2023-03-05T01:04:59.331Z,1.85
2023-03-05T01:07:01.110Z,1.92
2023-03-05T01:09:02.413Z,2.02
2023-03-05T01:11:03.945Z,2.02
2023-03-05T01:13:05.397Z,2.09
2023-03-05T01:15:07.393Z,2.07
2023-03-05T01:17:08.481Z,2.05
2023-03-05T01:19:09.854Z,2.06
2023-03-05T01:21:11.065Z,2.07
2023-03-05T01:23:12.953Z,2.05
2023-03-05T01:25:13.989Z,2.06
2023-03-05T01:27:15.417Z,2.02
2023-03-05T01:29:17.360Z,2.04
2023-03-05T01:31:18.509Z,2.01
2023-03-05T01:33:20.117Z,2
2023-03-05T01:35:22.145Z,2.03
2023-03-05T01:37:23.223Z,2.04
2023-03-05T01:39:24.228Z,2.04
2023-03-05T01:41:26.169Z,2.03
2023-03-05T01:43:27.964Z,2.01
2023-03-05T01:45:29.949Z,2
2023-03-05T01:47:30.983Z,1.94
2023-03-05T01:49:32.293Z,1.98
2023-03-05T01:51:34.104Z,2
2023-03-05T01:53:35.692Z,2.01
2023-03-05T01:55:37.327Z,2.03
2023-03-05T01:57:39.064Z,2.03
2023-03-05T01:59:40.315Z,2.01
2023-03-05T02:01:42.202Z,2.01
2023-03-05T02:03:44.182Z,1.99
2023-03-05T02:05:45.442Z,1.99
2023-03-05T02:07:46.537Z,2
2023-03-05T02:09:48.288Z,2.03
2023-03-05T02:11:49.358Z,2
2023-03-05T02:13:51.036Z,2.01
2023-03-05T02:16:01.121Z,2
2023-03-05T02:17:53.695Z,1.98
2023-03-05T02:19:55.565Z,1.97
2023-03-05T02:21:57.446Z,1.96
2023-03-05T02:23:58.703Z,1.95
2023-03-05T02:26:00.101Z,1.91
2023-03-05T02:28:01.714Z,1.96
2023-03-05T02:30:02.906Z,1.98
2023-03-05T02:32:04.377Z,1.92
2023-03-05T02:34:05.328Z,1.92
2023-03-05T02:36:06.929Z,1.93
2023-03-05T02:38:08.604Z,1.93
2023-03-05T02:40:09.651Z,1.9
2023-03-05T02:42:10.739Z,1.91
2023-03-05T02:44:11.816Z,1.92
2023-03-05T02:46:13.554Z,1.91
2023-03-05T02:48:14.459Z,1.97
2023-03-05T02:50:15.581Z,1.89
2023-03-05T02:52:16.693Z,1.88
2023-03-05T02:54:18.107Z,1.88
2023-03-05T02:56:20.004Z,1.88
2023-03-05T02:58:21.298Z,1.83
2023-03-05T03:00:22.666Z,1.88
2023-03-05T03:02:23.791Z,1.93
2023-03-05T03:04:25.047Z,1.98
2023-03-05T03:06:26.627Z,1.94
2023-03-05T03:08:28.049Z,1.95
2023-03-05T03:10:29.173Z,1.95
2023-03-05T03:12:30.172Z,2
2023-03-05T03:14:32.218Z,1.96
2023-03-05T03:16:33.881Z,1.97
2023-03-05T03:18:35.519Z,1.98
2023-03-05T03:20:37.403Z,1.96
2023-03-05T03:22:38.508Z,1.95
2023-03-05T03:24:39.704Z,1.97
2023-03-05T03:26:40.854Z,1.93
2023-03-05T03:28:42.041Z,1.93
2023-03-05T03:30:43.169Z,1.93
2023-03-05T03:32:44.833Z,1.9
2023-03-05T03:34:46.322Z,1.93
2023-03-05T03:36:47.753Z,1.9
2023-03-05T03:38:49.248Z,1.94
2023-03-05T03:40:50.763Z,1.94
2023-03-05T03:42:52.107Z,1.96
2023-03-05T03:44:53.931Z,1.92
2023-03-05T03:46:55.608Z,1.89
2023-03-05T03:48:56.726Z,1.86
2023-03-05T03:50:58.028Z,1.86
2023-03-05T03:52:59.277Z,1.89
2023-03-05T03:55:00.953Z,1.85
2023-03-05T03:57:02.169Z,1.89
2023-03-05T03:59:04.039Z,1.85
2023-03-05T04:01:05.288Z,1.89
2023-03-05T04:03:06.889Z,1.89
2023-03-05T04:05:07.968Z,1.87
2023-03-05T04:07:09.869Z,1.85
2023-03-05T04:09:11.423Z,1.82
2023-03-05T04:11:12.861Z,1.83
2023-03-05T04:13:14.829Z,1.8
2023-03-05T04:15:16.678Z,1.78
2023-03-05T04:17:18.248Z,1.78
2023-03-05T04:19:20.132Z,1.78
2023-03-05T04:21:21.761Z,1.78
2023-03-05T04:23:23.528Z,1.77
2023-03-05T04:25:24.768Z,1.73
2023-03-05T04:27:26.667Z,1.73
2023-03-05T04:29:28.419Z,1.71
2023-03-05T04:31:29.959Z,1.68
2023-03-05T04:33:31.781Z,1.69
2023-03-05T04:35:33.360Z,1.66
2023-03-05T04:37:35.188Z,1.69
2023-03-05T04:39:36.987Z,1.63
2023-03-05T04:41:38.065Z,1.68
2023-03-05T04:43:39.205Z,1.67
2023-03-05T04:45:40.431Z,1.63
2023-03-05T04:47:42.006Z,1.62
2023-03-05T04:49:43.718Z,1.58
2023-03-05T04:51:44.820Z,1.59
2023-03-05T04:53:46.725Z,1.54
2023-03-05T04:55:48.269Z,1.57
2023-03-05T04:57:49.325Z,1.53
2023-03-05T04:59:50.851Z,1.52
2023-03-05T05:01:53.193Z,1.52
2023-03-05T05:03:53.489Z,1.46
2023-03-05T05:05:55.364Z,1.46
2023-03-05T05:07:57.141Z,1.46
2023-03-05T05:09:58.514Z,1.47
2023-03-05T05:11:59.950Z,1.49
2023-03-05T05:14:01.356Z,1.47
2023-03-05T05:16:03.295Z,1.43
2023-03-05T05:18:04.802Z,1.41
2023-03-05T05:20:06.524Z,1.43
2023-03-05T05:22:07.595Z,1.42
2023-03-05T05:24:08.741Z,1.49
2023-03-05T05:26:10.033Z,1.47
2023-03-05T05:28:11.514Z,1.46
2023-03-05T05:28:55.441Z,1.43
2023-03-05T05:30:57.419Z,1.43
2023-03-05T05:32:58.678Z,1.49
2023-03-05T05:35:00.283Z,1.53
2023-03-05T05:37:02.159Z,1.51
2023-03-05T05:39:03.677Z,1.51
2023-03-05T05:41:05.617Z,1.48
2023-03-05T05:43:07.584Z,1.46
2023-03-05T05:45:09.535Z,1.44
2023-03-05T05:47:11.488Z,1.41
2023-03-05T05:49:12.566Z,1.41
2023-03-05T05:51:14.188Z,1.39
2023-03-05T05:53:15.852Z,1.4
2023-03-05T05:55:17.419Z,1.36
2023-03-05T05:57:19.378Z,1.34
2023-03-05T05:59:20.935Z,1.4
2023-03-05T06:01:22.431Z,1.35
2023-03-05T06:03:23.760Z,1.35
2023-03-05T06:05:25.411Z,1.35
2023-03-05T06:07:26.825Z,1.35
2023-03-05T06:09:27.957Z,1.33
2023-03-05T06:11:29.649Z,1.37
2023-03-05T06:13:31.392Z,1.3
2023-03-05T06:15:33.299Z,1.31
2023-03-05T06:17:35.263Z,1.29
2023-03-05T06:19:37.208Z,1.32
2023-03-05T06:21:38.689Z,1.34
2023-03-05T06:23:39.972Z,1.38
2023-03-05T06:25:41.418Z,1.39
2023-03-05T06:27:43.014Z,1.4
2023-03-05T06:29:44.877Z,1.41
2023-03-05T06:31:46.490Z,1.38
2023-03-05T06:33:56.448Z,1.43
2023-03-05T06:35:49.130Z,1.46
2023-03-05T06:37:50.716Z,1.46
2023-03-05T06:39:52.236Z,1.48
2023-03-05T06:41:53.318Z,1.5
2023-03-05T06:43:54.405Z,1.51
2023-03-05T06:45:56.271Z,1.47
2023-03-05T06:47:57.406Z,1.49
2023-03-05T06:49:58.897Z,1.48
2023-03-05T06:52:00.783Z,1.49
2023-03-05T06:54:02.056Z,1.47
2023-03-05T06:56:03.871Z,1.49
2023-03-05T06:58:05.832Z,1.47
2023-03-05T07:00:07.126Z,1.51
2023-03-05T07:02:08.690Z,1.54
2023-03-05T07:04:09.926Z,1.56
2023-03-05T07:06:11.432Z,1.62
2023-03-05T07:08:12.780Z,1.64
2023-03-05T07:10:14.683Z,1.65
2023-03-05T07:12:16.349Z,1.66
2023-03-05T07:14:17.653Z,1.72
2023-03-05T07:16:18.739Z,1.71
2023-03-05T07:18:20.221Z,1.75
2023-03-05T07:20:21.907Z,1.78
2023-03-05T07:22:22.888Z,1.79
2023-03-05T07:24:24.853Z,1.84
2023-03-05T07:26:26.585Z,1.85
2023-03-05T07:28:28.439Z,1.85
2023-03-05T07:30:30.119Z,1.88
2023-03-05T07:32:31.340Z,1.93
2023-03-05T07:34:32.430Z,1.95
2023-03-05T07:36:34.183Z,1.95
2023-03-05T07:38:36.081Z,2.05
2023-03-05T07:40:37.949Z,2.03
2023-03-05T07:42:39.047Z,2.06
2023-03-05T07:44:40.657Z,2.14
2023-03-05T07:46:42.238Z,2.19
2023-03-05T07:48:44.102Z,2.22
2023-03-05T07:50:45.213Z,2.21
2023-03-05T07:52:47.165Z,2.18
2023-03-05T07:54:48.646Z,2.25
2023-03-05T07:56:50.537Z,2.26
2023-03-05T07:58:52.591Z,2.2
2023-03-05T08:00:53.678Z,2.23
2023-03-05T08:02:55.169Z,2.28
2023-03-05T08:04:56.915Z,2.29
2023-03-05T08:06:58.109Z,2.25
2023-03-05T08:08:59.665Z,2.26
2023-03-05T08:13:03.359Z,2.29
2023-03-05T08:15:04.997Z,2.32
2023-03-05T08:17:06.995Z,2.37
2023-03-05T08:19:08.503Z,2.35
2023-03-05T08:21:10.170Z,2.35
2023-03-05T08:23:11.987Z,2.4
2023-03-05T08:25:13.505Z,2.43
2023-03-05T08:27:15.004Z,2.41
2023-03-05T08:29:16.354Z,2.48
2023-03-05T08:31:17.406Z,2.54
2023-03-05T08:33:18.684Z,2.55
2023-03-05T08:35:19.986Z,2.6
2023-03-05T08:37:21.770Z,2.64
2023-03-05T08:39:23.110Z,2.73
2023-03-05T08:41:24.174Z,2.75
2023-03-05T08:43:26.184Z,2.82
2023-03-05T08:45:27.324Z,2.82
2023-03-05T08:47:28.917Z,2.87
2023-03-05T08:49:30.662Z,2.94
2023-03-05T08:51:31.669Z,2.95
2023-03-05T08:53:33.479Z,3
2023-03-05T08:55:34.520Z,2.99
2023-03-05T08:57:35.809Z,3
2023-03-05T08:59:36.923Z,3.03
2023-03-05T09:01:38.077Z,3.13
2023-03-05T09:03:39.593Z,3.2
2023-03-05T09:05:40.696Z,3.25
2023-03-05T09:07:42.048Z,3.28
2023-03-05T09:09:43.179Z,3.34
2023-03-05T09:11:44.289Z,3.39
2023-03-05T09:13:46.033Z,3.3
2023-03-05T09:15:47.774Z,3.3
2023-03-05T09:17:48.791Z,3.42
2023-03-05T09:19:50.259Z,3.45
2023-03-05T09:21:51.994Z,3.37
2023-03-05T09:23:53.096Z,3.55
2023-03-05T09:25:54.605Z,3.61
2023-03-05T09:27:55.942Z,3.53
2023-03-05T09:29:57.003Z,3.5
2023-03-05T09:31:58.630Z,3.5
2023-03-05T09:33:59.644Z,3.69
2023-03-05T09:38:02.959Z,3.82
2023-03-05T09:40:03.949Z,3.77
2023-03-05T09:42:05.004Z,3.85
2023-03-05T09:44:07.212Z,3.85
2023-03-05T09:46:07.526Z,3.93
2023-03-05T09:48:09.076Z,4.08
2023-03-05T09:50:10.689Z,3.99
2023-03-05T09:52:12.363Z,4.02
2023-03-05T09:54:13.416Z,4.39
2023-03-05T09:56:14.745Z,4.02
2023-03-05T09:58:16.361Z,4.27
2023-03-05T10:00:17.755Z,4.28
2023-03-05T10:02:19.965Z,4.42
2023-03-05T10:04:20.752Z,4.27
2023-03-05T10:06:22.060Z,4.37
2023-03-05T10:08:23.268Z,4.45
2023-03-05T10:10:24.936Z,4.43
2023-03-05T10:12:25.995Z,4.67
2023-03-05T10:14:27.696Z,4.48
2023-03-05T10:16:28.815Z,4.68
2023-03-05T10:18:29.965Z,4.81
2023-03-05T10:20:31.892Z,4.77
2023-03-05T10:22:33.250Z,4.95
2023-03-05T10:24:34.448Z,5.03
2023-03-05T10:26:35.835Z,4.8
2023-03-05T10:28:37.080Z,5.06
2023-03-05T10:30:38.051Z,4.7
2023-03-05T10:32:39.115Z,4.73
2023-03-05T10:36:41.362Z,4.82
2023-03-05T10:38:42.633Z,4.83
2023-03-05T10:40:44.380Z,4.98
2023-03-05T10:42:45.425Z,5.01
2023-03-05T10:44:46.432Z,5.01
2023-03-05T10:46:47.858Z,4.92
2023-03-05T10:48:49.584Z,5.06
2023-03-05T10:50:51.199Z,5.18
2023-03-05T10:52:53.023Z,5.17
2023-03-05T10:54:54.733Z,5.03
2023-03-05T10:56:56.226Z,4.95
2023-03-05T10:58:57.823Z,4.84
2023-03-05T11:00:59.251Z,4.88
2023-03-05T11:03:00.507Z,4.86
2023-03-05T11:05:04.219Z,4.81
2023-03-05T11:07:04.042Z,4.84
2023-03-05T11:09:05.213Z,4.96
2023-03-05T11:11:06.317Z,4.82
2023-03-05T11:13:07.759Z,4.9
2023-03-05T11:15:08.971Z,4.88
2023-03-05T11:17:10.610Z,4.94
2023-03-05T11:19:12.420Z,4.8
2023-03-05T11:21:14.243Z,4.79
2023-03-05T11:23:15.879Z,4.64
2023-03-05T11:25:17.021Z,4.61
2023-03-05T11:27:18.388Z,4.65
2023-03-05T11:29:20.067Z,4.6
2023-03-05T11:31:21.644Z,4.45
2023-03-05T11:33:23.455Z,4.33
2023-03-05T11:35:25.335Z,4.32
2023-03-05T11:37:26.680Z,4.27
2023-03-05T11:39:28.002Z,4.25
2023-03-05T11:41:29.804Z,4.23
2023-03-05T11:43:31.093Z,4.1
2023-03-05T11:45:32.777Z,4.03
2023-03-05T11:47:34.215Z,3.99
2023-03-05T11:49:35.385Z,3.99
2023-03-05T11:51:36.903Z,3.93
2023-03-05T11:53:38.134Z,3.92
2023-03-05T11:55:39.301Z,3.92
2023-03-05T11:57:40.951Z,3.92
2023-03-05T11:59:42.318Z,3.92
2023-03-05T12:01:43.402Z,3.94
2023-03-05T12:03:45.042Z,4
2023-03-05T12:05:46.810Z,4.03
2023-03-05T12:07:48.366Z,4.03
2023-03-05T12:09:50.109Z,4.06
2023-03-05T12:11:51.713Z,4.09
2023-03-05T12:13:53.193Z,4.09
2023-03-05T12:16:38.889Z,4.02
2023-03-05T12:18:40.769Z,4.02
2023-03-05T12:20:41.931Z,4.06
2023-03-05T12:22:43.374Z,4.04
2023-03-05T12:24:45.170Z,4.04
2023-03-05T12:26:46.527Z,4.01
2023-03-05T12:28:48.413Z,3.9
2023-03-05T12:30:49.582Z,4.02
2023-03-05T12:32:51.425Z,4.13
2023-03-05T12:34:52.776Z,4.06
2023-03-05T12:36:54.636Z,4.08
2023-03-05T12:38:55.934Z,4.11
2023-03-05T12:40:57.573Z,4.12
2023-03-05T12:42:58.890Z,4.18
2023-03-05T12:45:00.288Z,4.06
2023-03-05T12:47:01.708Z,4.03
2023-03-05T12:49:02.636Z,4.05
2023-03-05T12:51:04.380Z,4.06
2023-03-05T12:55:06.513Z,4.08
2023-03-05T12:57:07.782Z,4.1
2023-03-05T12:59:09.176Z,4.08
2023-03-05T13:01:11.054Z,4.11
2023-03-05T13:03:12.674Z,4.2
2023-03-05T13:05:14.472Z,4.16
2023-03-05T13:07:16.141Z,4.12
2023-03-05T13:09:18.028Z,4.07
2023-03-05T13:11:19.449Z,3.99
2023-03-05T13:13:21.589Z,4.06
2023-03-05T13:15:22.231Z,4.02
2023-03-05T13:17:23.381Z,4
2023-03-05T13:19:24.941Z,4
2023-03-05T13:21:26.791Z,3.94
2023-03-05T13:23:27.873Z,3.89
2023-03-05T13:25:28.876Z,3.94
2023-03-05T13:27:30.455Z,3.95
2023-03-05T13:29:32.429Z,4.02
2023-03-05T13:31:33.457Z,4.09
2023-03-05T13:33:35.100Z,4.03
2023-03-05T13:37:37.957Z,4.08
2023-03-05T13:39:39.760Z,4.13
2023-03-05T13:41:40.969Z,4.13
2023-03-05T13:43:42.558Z,4.23
2023-03-05T13:45:43.953Z,4.33
2023-03-05T13:47:45.101Z,4.48
2023-03-05T13:49:46.743Z,4.53
2023-03-05T13:51:47.849Z,4.42
2023-03-05T13:53:49.630Z,4.46
2023-03-05T13:55:50.667Z,4.47
2023-03-05T13:57:52.122Z,4.41
2023-03-05T13:59:53.736Z,4.37
2023-03-05T14:01:55.375Z,4.37
2023-03-05T14:03:56.749Z,4.25
2023-03-05T14:05:58.301Z,4.31
2023-03-05T14:07:59.635Z,4.35
2023-03-05T14:10:00.602Z,4.36
2023-03-05T14:12:02.103Z,4.21
2023-03-05T14:14:03.273Z,4.26
2023-03-05T14:16:04.318Z,4.28
2023-03-05T14:18:05.502Z,4.32
2023-03-05T14:20:06.713Z,4.3
2023-03-05T14:22:07.573Z,4.14
2023-03-05T14:24:09.554Z,4.19
2023-03-05T14:26:11.410Z,4.06
2023-03-05T14:28:12.580Z,4.06
2023-03-05T14:30:14.011Z,4.08
2023-03-05T14:32:15.762Z,4.1
2023-03-05T14:34:17.418Z,4.06
2023-03-05T14:36:18.777Z,4.09
2023-03-05T14:38:20.508Z,4.11
2023-03-05T14:40:21.730Z,4.06
2023-03-05T14:42:23.092Z,4.02
2023-03-05T14:44:24.738Z,4.03
2023-03-05T14:46:26.045Z,4.04
2023-03-05T14:48:27.362Z,4.02
2023-03-05T14:50:28.592Z,4.05
2023-03-05T14:52:30.587Z,4.06
2023-03-05T14:54:31.678Z,4.08
2023-03-05T14:56:33.463Z,4.14
2023-03-05T14:58:34.628Z,4.16
2023-03-05T15:00:36.201Z,4.13
2023-03-05T15:02:37.990Z,4.15
2023-03-05T15:04:39.835Z,4.19
2023-03-05T15:06:41.762Z,4.08
2023-03-05T15:08:42.893Z,4.06
2023-03-05T15:10:44.182Z,4.02
2023-03-05T15:12:46.121Z,4.02
2023-03-05T15:14:47.990Z,4.06
2023-03-05T15:16:49.436Z,4.02
2023-03-05T15:18:50.723Z,3.99
2023-03-05T15:20:52.218Z,4.01
2023-03-05T15:22:54.243Z,4
2023-03-05T15:24:55.310Z,3.99
2023-03-05T15:26:56.351Z,3.93
2023-03-05T15:31:00.196Z,3.94
2023-03-05T15:33:00.895Z,3.94
2023-03-05T15:35:02.189Z,3.95
2023-03-05T15:37:03.460Z,3.9
2023-03-05T15:39:04.966Z,3.9
2023-03-05T15:41:06.794Z,3.9
2023-03-05T15:43:08.351Z,3.86
2023-03-05T15:45:09.371Z,3.86
2023-03-05T15:47:10.720Z,3.84
2023-03-05T15:49:11.945Z,3.83
2023-03-05T15:51:13.743Z,3.83
2023-03-05T15:53:15.502Z,3.81
2023-03-05T15:55:17.427Z,3.82
2023-03-05T15:57:18.508Z,3.81
2023-03-05T15:59:20.419Z,3.82
2023-03-05T16:01:21.506Z,3.79
2023-03-05T16:03:22.494Z,3.8
2023-03-05T16:05:23.947Z,3.77
2023-03-05T16:07:25.330Z,3.79
2023-03-05T16:09:27.087Z,3.75
2023-03-05T16:11:28.134Z,3.75
2023-03-05T16:13:29.311Z,3.72
2023-03-05T16:15:31.831Z,3.76
2023-03-05T16:17:32.399Z,3.72
2023-03-05T16:19:34.174Z,3.72
2023-03-05T16:21:35.280Z,3.72
2023-03-05T16:23:36.610Z,3.67
2023-03-05T16:25:37.949Z,3.66
2023-03-05T16:27:39.629Z,3.63
2023-03-05T16:29:40.647Z,3.65
2023-03-05T16:31:42.687Z,3.62
2023-03-05T16:33:44.307Z,3.61
2023-03-05T16:35:45.975Z,3.58
2023-03-05T16:37:47.310Z,3.58
2023-03-05T16:39:48.433Z,3.59
2023-03-05T16:41:49.486Z,3.54
2023-03-05T16:43:50.640Z,3.54
2023-03-05T16:45:52.007Z,3.5
2023-03-05T16:47:53.824Z,3.49
2023-03-05T16:49:55.536Z,3.48
2023-03-05T16:51:59.326Z,3.48
2023-03-05T16:53:58.218Z,3.42
2023-03-05T16:56:00.400Z,3.37
2023-03-05T16:58:01.820Z,3.35
2023-03-05T17:00:03.314Z,3.35
2023-03-05T17:02:05.245Z,3.32
2023-03-05T17:04:07.060Z,3.3
2023-03-05T17:06:08.657Z,3.36
2023-03-05T17:08:10.054Z,3.33
2023-03-05T17:10:11.340Z,3.3
2023-03-05T17:12:13.191Z,3.32
2023-03-05T17:14:14.730Z,3.35
2023-03-05T17:16:16.603Z,3.3
2023-03-05T17:18:17.718Z,3.29
2023-03-05T17:20:19.211Z,3.25
2023-03-05T17:22:20.666Z,3.25
2023-03-05T17:24:22.875Z,3.19
2023-03-05T17:26:24.013Z,3.18
2023-03-05T17:28:25.197Z,3.14
2023-03-05T17:30:26.850Z,3.14
2023-03-05T17:32:28.713Z,3.12
2023-03-05T17:34:35.810Z,3.09
2023-03-05T17:36:31.206Z,3.04
2023-03-05T17:38:32.737Z,3.03
2023-03-05T17:40:34.047Z,2.98
2023-03-05T17:42:35.487Z,2.94
2023-03-05T17:44:36.736Z,2.87
2023-03-05T17:46:38.691Z,2.82
2023-03-05T17:48:40.417Z,2.81
2023-03-05T17:50:41.429Z,2.83
2023-03-05T17:52:42.728Z,2.92
2023-03-05T17:54:44.579Z,2.89
2023-03-05T17:56:46.537Z,2.95
2023-03-05T17:58:47.635Z,2.91
2023-03-05T18:00:49.482Z,2.89
2023-03-05T18:02:50.923Z,2.83
2023-03-05T18:04:52.712Z,2.8
2023-03-05T18:06:53.797Z,2.79
2023-03-05T18:08:55.050Z,2.8
2023-03-05T18:10:56.532Z,2.81
2023-03-05T18:12:58.132Z,2.89
2023-03-05T18:14:59.301Z,2.9
2023-03-05T18:17:00.629Z,2.87
2023-03-05T18:19:02.699Z,2.85
2023-03-05T18:21:04.355Z,2.88
2023-03-05T18:23:05.963Z,2.91
2023-03-05T18:25:07.322Z,2.89
2023-03-05T18:27:09.027Z,2.91
2023-03-05T18:29:10.648Z,2.89
2023-03-05T18:31:11.745Z,2.92
2023-03-05T18:33:12.674Z,2.98
2023-03-05T18:35:14.000Z,2.9
2023-03-05T18:37:15.019Z,2.92
2023-03-05T18:39:16.234Z,2.94
2023-03-05T18:41:17.432Z,2.89
2023-03-05T18:43:18.824Z,2.84
2023-03-05T18:45:20.832Z,2.88
2023-03-05T18:47:21.948Z,2.87
2023-03-05T18:49:23.885Z,2.84
2023-03-05T18:51:25.678Z,2.83
2023-03-05T18:53:27.409Z,2.87
2023-03-05T18:55:28.551Z,2.87
2023-03-05T18:57:30.002Z,2.88
2023-03-05T18:59:31.718Z,2.88
2023-03-05T19:02:17.446Z,2.84
2023-03-05T19:04:19.261Z,2.86
2023-03-05T19:06:20.472Z,2.84
2023-03-05T19:08:21.847Z,2.88
2023-03-05T19:10:22.905Z,2.84
2023-03-05T19:12:23.943Z,2.83
2023-03-05T19:14:25.303Z,2.86
2023-03-05T19:16:26.901Z,2.8
2023-03-05T19:18:28.464Z,2.83
2023-03-05T19:20:30.221Z,2.83
2023-03-05T19:22:31.961Z,2.8
2023-03-05T19:24:33.884Z,2.78
2023-03-05T19:26:35.178Z,2.8
2023-03-05T19:28:37.059Z,2.81
2023-03-05T19:30:38.480Z,2.78
2023-03-05T19:32:39.886Z,2.8
2023-03-05T19:34:41.324Z,2.81
2023-03-05T19:36:43.126Z,2.79
2023-03-05T19:38:44.930Z,2.76
2023-03-05T19:40:46.135Z,2.75
2023-03-05T19:44:49.359Z,2.76
2023-03-05T19:46:50.566Z,2.75
2023-03-05T19:48:52.066Z,2.75
2023-03-05T19:50:53.015Z,2.72
2023-03-05T19:52:54.836Z,2.74
2023-03-05T19:54:56.421Z,2.76
2023-03-05T19:56:57.535Z,2.73
2023-03-05T19:58:59.078Z,2.75
2023-03-05T20:01:00.290Z,2.71
2023-03-05T20:03:02.042Z,2.71
2023-03-05T20:05:03.777Z,2.66
2023-03-05T20:07:05.554Z,2.64
2023-03-05T20:09:08.047Z,2.65
2023-03-05T20:11:07.980Z,2.65
2023-03-05T20:13:09.110Z,2.66
2023-03-05T20:15:10.204Z,2.64
2023-03-05T20:17:11.442Z,2.72
2023-03-05T20:19:13.404Z,2.66
2023-03-05T20:21:14.901Z,2.65
2023-03-05T20:23:16.110Z,2.65
2023-03-05T20:25:17.699Z,2.67
2023-03-05T20:27:18.975Z,2.61
2023-03-05T20:29:19.995Z,2.59
2023-03-05T20:31:21.595Z,2.62
2023-03-05T20:33:23.040Z,2.61
2023-03-05T20:35:24.718Z,2.58
2023-03-05T20:37:26.234Z,2.57
2023-03-05T20:39:27.417Z,2.56
2023-03-05T20:41:29.440Z,2.56
2023-03-05T20:43:30.672Z,2.55
2023-03-05T20:45:31.863Z,2.53
2023-03-05T20:47:33.170Z,2.57
2023-03-05T20:49:34.426Z,2.56
2023-03-05T20:51:36.093Z,2.63
2023-03-05T20:53:37.861Z,2.63
2023-03-05T20:55:39.723Z,2.61
2023-03-05T20:57:41.240Z,2.55
2023-03-05T20:59:42.493Z,2.52
2023-03-05T21:01:43.483Z,2.5
2023-03-05T21:03:45.099Z,2.5
2023-03-05T21:05:46.864Z,2.48
2023-03-05T21:07:48.103Z,2.44
2023-03-05T21:09:49.504Z,2.46
2023-03-05T21:11:50.687Z,2.5
2023-03-05T21:13:52.411Z,2.48
2023-03-05T21:15:53.700Z,2.48
2023-03-05T21:17:54.975Z,2.47
2023-03-05T21:19:56.312Z,2.47
2023-03-05T21:21:57.517Z,2.44
2023-03-05T21:23:58.758Z,2.4
2023-03-05T21:25:59.787Z,2.39
2023-03-05T21:28:00.869Z,2.36
2023-03-05T21:30:02.667Z,2.31
2023-03-05T21:32:04.427Z,2.29
2023-03-05T21:34:05.372Z,2.31
2023-03-05T21:36:06.660Z,2.29
2023-03-05T21:38:08.345Z,2.29
2023-03-05T21:40:09.434Z,2.28
2023-03-05T21:42:10.896Z,2.25
2023-03-05T21:44:12.426Z,2.23
2023-03-05T21:46:14.094Z,2.27
2023-03-05T21:48:15.942Z,2.25
2023-03-05T21:50:17.419Z,2.26
2023-03-05T21:52:18.852Z,2.21
2023-03-05T21:54:20.746Z,2.19
2023-03-05T21:56:21.873Z,2.21
2023-03-05T21:58:23.093Z,2.18
2023-03-05T22:00:24.173Z,2.15
2023-03-05T22:02:26.089Z,2.08
2023-03-05T22:04:27.077Z,2.04
2023-03-05T22:08:30.241Z,2.02
2023-03-05T22:10:31.677Z,1.97
2023-03-05T22:12:33.297Z,1.92
2023-03-05T22:14:34.825Z,1.97
2023-03-05T22:16:36.312Z,1.94
2023-03-05T22:18:38.294Z,1.89
2023-03-05T22:20:40.046Z,1.85
2023-03-05T22:22:41.374Z,1.83
2023-03-05T22:24:42.634Z,1.77
2023-03-05T22:26:44.550Z,1.75
2023-03-05T22:28:45.634Z,1.72
2023-03-05T22:30:47.724Z,1.66
2023-03-05T22:32:48.873Z,1.63
2023-03-05T22:34:50.236Z,1.63
2023-03-05T22:36:51.276Z,1.65
2023-03-05T22:38:52.320Z,1.65
2023-03-05T22:40:53.574Z,1.67
2023-03-05T22:42:55.494Z,1.72
2023-03-05T22:44:57.052Z,1.69
2023-03-05T22:46:58.935Z,1.7
2023-03-05T22:49:00.213Z,1.73
2023-03-05T22:51:02.174Z,1.8
2023-03-05T22:53:03.523Z,1.79
2023-03-05T22:55:04.848Z,1.76
2023-03-05T22:57:06.420Z,1.72
2023-03-05T22:59:08.314Z,1.74
2023-03-05T23:01:09.476Z,1.73
2023-03-05T23:03:10.623Z,1.69
2023-03-05T23:05:12.572Z,1.63
2023-03-05T23:07:13.769Z,1.61
2023-03-05T23:09:15.494Z,1.54
2023-03-05T23:11:17.337Z,1.51
2023-03-05T23:13:18.874Z,1.51
2023-03-05T23:15:20.099Z,1.45
2023-03-05T23:17:21.407Z,1.4
2023-03-05T23:19:23.047Z,1.39
2023-03-05T23:21:24.353Z,1.32
2023-03-05T23:23:25.999Z,1.37
2023-03-05T23:25:27.828Z,1.41
2023-03-05T23:27:29.441Z,1.51
2023-03-05T23:29:30.630Z,1.48
2023-03-05T23:31:31.863Z,1.48
2023-03-05T23:33:33.368Z,1.43
2023-03-05T23:35:35.244Z,1.39
2023-03-05T23:39:38.413Z,1.34
2023-03-05T23:41:39.910Z,1.32
2023-03-05T23:43:41.330Z,1.3
2023-03-05T23:45:43.151Z,1.27
2023-03-05T23:47:44.314Z,1.23
2023-03-05T23:49:45.800Z,1.19
2023-03-05T23:51:47.236Z,1.22
2023-03-05T23:53:49.058Z,1.3
2023-03-05T23:55:51.008Z,1.3
2023-03-05T23:57:52.036Z,1.3
2023-03-05T23:59:53.302Z,1.29
